Time;durP1;ratioP1;P1;durP2;ratioP2;P2;SDS_P1;SDS_P2;PMS_P1;PMS_P2;Temp;Humidity;BMP_temperature;BMP_pressure;BME280_temperature;BME280_humidity;BME280_pressure;Samples;Min_cycle;Max_cycle;Signal;HPM_P1;HPM_P2
2023/06/18 00:02:02;;;;;;;;;14.75;14.00;;;;;27.23;38.53;100516.56;6130929;23;46022;-64
2023/06/18 00:04:28;;;;;;;;;15.50;15.00;;;;;27.26;38.40;100521.91;6129079;23;45089;-63
2023/06/18 00:06:54;;;;;;;;;16.33;14.67;;;;;27.20;38.89;100506.63;6127490;23;44929;-62
2023/06/18 00:09:20;;;;;;;;;16.33;14.33;;;;;27.23;38.59;100510.22;6129994;23;45081;-62
2023/06/18 00:11:45;;;;;;;;;21.33;16.67;;;;;27.23;38.82;100507.47;6130707;23;46300;-64
2023/06/18 00:14:11;;;;;;;;;16.00;16.00;;;;;27.21;38.91;100508.41;6130522;23;45411;-62
2023/06/18 00:16:36;;;;;;;;;16.50;16.50;;;;;27.19;38.61;100507.59;6130572;23;45076;-62
2023/06/18 00:19:02;;;;;;;;;17.75;16.50;;;;;27.17;38.79;100495.81;6128959;23;44897;-62
2023/06/18 00:21:27;;;;;;;;;19.00;17.67;;;;;27.20;39.29;100503.88;6130075;23;45591;-62
2023/06/18 00:23:52;;;;;;;;;19.50;15.25;;;;;27.17;39.21;100500.41;6129935;23;44862;-62
2023/06/18 00:26:18;;;;;;;;;16.00;16.00;;;;;27.09;39.20;100481.59;6128280;23;45066;-62
2023/06/18 00:28:44;;;;;;;;;16.75;16.75;;;;;27.09;39.13;100486.16;6131261;23;45007;-62
2023/06/18 00:31:11;;;;;;;;;16.25;15.25;;;;;27.18;39.20;100504.94;6130771;23;45830;-62
2023/06/18 00:33:37;;;;;;;;;15.00;14.00;;;;;27.14;39.42;100497.78;6130705;23;44981;-61
2023/06/18 00:36:07;;;;;;;;;17.00;16.33;;;;;27.13;39.35;100505.16;6129394;23;44974;-62
2023/06/18 00:38:34;;;;;;;;;16.67;14.00;;;;;27.12;39.04;100500.59;6130912;23;45116;-60
2023/06/18 00:40:59;;;;;;;;;22.25;16.00;;;;;26.93;39.62;100478.66;6129906;23;45749;-62
2023/06/18 00:43:28;;;;;;;;;14.00;13.00;;;;;27.06;39.46;100500.00;6131002;23;45295;-62
2023/06/18 00:45:59;;;;;;;;;21.50;18.50;;;;;27.05;39.43;100509.22;6131005;23;44902;-62
2023/06/18 00:48:25;;;;;;;;;15.33;13.33;;;;;27.01;39.55;100520.31;6131000;23;45205;-62
2023/06/18 00:50:53;;;;;;;;;16.67;16.00;;;;;27.00;40.07;100525.88;6129579;23;45828;-61
2023/06/18 00:53:20;;;;;;;;;14.67;13.33;;;;;26.98;39.69;100528.69;6130102;23;44901;-62
2023/06/18 00:55:47;;;;;;;;;17.50;14.75;;;;;26.94;39.85;100523.41;6130503;23;44947;-62
2023/06/18 00:58:16;;;;;;;;;18.00;15.50;;;;;26.94;39.86;100534.38;6131174;23;45143;-63
2023/06/18 01:00:43;;;;;;;;;12.33;9.33;;;;;26.83;40.47;100541.22;6121417;23;45756;-62
2023/06/18 01:03:17;;;;;;;;;16.00;16.00;;;;;26.89;44.18;100574.81;6123083;23;45260;-62
2023/06/18 01:05:49;;;;;;;;;16.67;13.33;;;;;26.89;46.24;100574.81;6130268;23;45194;-62
2023/06/18 01:08:17;;;;;;;;;18.00;13.75;;;;;26.81;46.33;100556.84;6129743;23;44947;-62
2023/06/18 01:10:43;;;;;;;;;19.25;17.00;;;;;26.83;46.70;100578.72;6130230;23;46462;-62
2023/06/18 01:13:13;;;;;;;;;16.25;15.00;;;;;26.78;48.35;100581.66;6128343;23;45043;-61
2023/06/18 01:15:38;;;;;;;;;17.00;16.25;;;;;26.72;46.78;100592.88;6128523;23;45196;-61
2023/06/18 01:18:07;;;;;;;;;19.25;16.75;;;;;26.64;46.83;100592.31;6131559;23;45333;-61
2023/06/18 01:20:40;;;;;;;;;19.00;14.25;;;;;26.55;48.41;100574.41;6130579;23;47846;-62
2023/06/18 01:23:31;;;;;;;;;16.50;15.25;;;;;26.57;48.65;100583.44;6131017;23;45149;-61
2023/06/18 01:25:59;;;;;;;;;16.00;15.00;;;;;26.57;48.94;100577.06;6131595;23;45031;-63
2023/06/18 01:28:27;;;;;;;;;14.50;12.75;;;;;26.53;49.36;100575.41;6132121;23;44852;-62
2023/06/18 01:30:54;;;;;;;;;17.00;14.50;;;;;26.39;50.22;100554.09;6131473;23;45674;-62
2023/06/18 01:33:21;;;;;;;;;25.25;22.25;;;;;26.45;51.45;100570.28;6130777;23;45391;-62
2023/06/18 01:35:47;;;;;;;;;25.25;18.00;;;;;26.50;50.80;100565.50;6130930;23;45096;-61
2023/06/18 01:38:13;;;;;;;;;18.25;14.25;;;;;26.49;51.91;100559.09;6132750;23;44933;-61
2023/06/18 01:41:00;;;;;;;;;12.33;11.67;;;;;26.40;52.00;100525.72;6131099;23;45147;-62
2023/06/18 01:44:00;;;;;;;;;19.25;15.25;;;;;26.39;52.52;100513.00;6131456;23;44981;-62
2023/06/18 01:46:29;;;;;;;;;22.75;19.50;;;;;26.24;52.94;100490.78;6106194;23;44872;-61
2023/06/18 01:48:58;;;;;;;;;19.75;18.00;;;;;26.27;53.58;100500.75;6131229;23;45106;-60
2023/06/18 01:51:25;;;;;;;;;20.50;16.25;;;;;26.32;53.61;100517.84;6130079;23;45577;-62
2023/06/18 01:53:54;;;;;;;;;16.75;15.75;;;;;26.32;54.01;100526.06;6131683;23;45047;-62
2023/06/18 01:56:21;;;;;;;;;18.67;17.00;;;;;26.29;54.35;100515.25;6130867;23;45060;-61
2023/06/18 01:58:46;;;;;;;;;15.33;12.67;;;;;26.30;54.11;100520.66;6128976;23;45303;-61
2023/06/18 02:01:12;;;;;;;;;12.67;12.33;;;;;26.33;53.39;100529.69;6130800;23;45838;-60
2023/06/18 02:03:39;;;;;;;;;17.33;15.33;;;;;26.34;53.56;100526.00;6132092;23;45207;-61
2023/06/18 02:06:06;;;;;;;;;16.33;14.00;;;;;26.31;53.52;100527.03;6132916;23;45010;-61
2023/06/18 02:08:31;;;;;;;;;14.67;13.00;;;;;26.32;52.18;100533.41;6131962;23;45013;-62
2023/06/18 02:10:57;;;;;;;;;14.00;12.00;;;;;26.20;52.07;100516.53;6130299;23;45371;-62
2023/06/18 02:13:22;;;;;;;;;19.67;17.00;;;;;26.29;53.10;100538.03;6130461;23;45009;-61
2023/06/18 02:15:48;;;;;;;;;24.50;22.25;;;;;26.26;52.08;100540.91;6131663;23;44915;-61
2023/06/18 02:18:13;;;;;;;;;25.50;23.50;;;;;26.27;51.73;100542.69;6132678;23;45103;-61
2023/06/18 02:20:41;;;;;;;;;25.75;21.25;;;;;26.19;53.07;100531.19;6131665;23;46058;-61
2023/06/18 02:23:06;;;;;;;;;20.75;18.50;;;;;26.28;53.16;100541.75;6131991;23;45315;-62
2023/06/18 02:25:32;;;;;;;;;18.75;16.75;;;;;26.30;53.07;100552.66;6130408;23;45127;-60
2023/06/18 02:28:02;;;;;;;;;21.00;15.00;;;;;26.29;52.77;100551.72;6131965;23;44905;-62
2023/06/18 02:30:31;;;;;;;;;20.25;14.25;;;;;26.27;52.25;100548.19;6130821;23;45456;-61
2023/06/18 02:33:06;;;;;;;;;18.25;15.50;;;;;26.25;53.37;100532.75;6130703;23;45328;-62
2023/06/18 02:35:31;;;;;;;;;20.75;18.50;;;;;26.24;53.29;100531.88;6131075;23;45112;-63
2023/06/18 02:37:56;;;;;;;;;24.75;19.00;;;;;26.22;52.87;100531.06;6132168;23;45195;-62
2023/06/18 02:40:22;;;;;;;;;17.50;17.50;;;;;26.22;52.02;100527.44;6131259;23;45083;-63
2023/06/18 02:42:48;;;;;;;;;20.67;17.00;;;;;26.17;52.45;100513.00;6131553;23;44973;-61
2023/06/18 02:45:18;;;;;;;;;16.00;11.25;;;;;26.22;53.26;100532.91;6130665;23;45178;-62
2023/06/18 02:47:44;;;;;;;;;18.75;18.00;;;;;26.21;52.03;100532.00;6131764;23;45030;-61
2023/06/18 02:50:10;;;;;;;;;16.33;16.33;;;;;26.19;51.79;100536.66;6130081;23;45826;-61
2023/06/18 02:52:36;;;;;;;;;11.67;11.67;;;;;26.17;52.36;100522.16;6130167;23;45024;-60
2023/06/18 02:55:01;;;;;;;;;20.00;16.33;;;;;26.16;52.22;100520.34;6131905;23;45429;-61
2023/06/18 02:57:26;;;;;;;;;12.67;12.67;;;;;26.16;52.20;100530.41;6132257;23;44993;-62
2023/06/18 02:59:52;;;;;;;;;16.00;12.00;;;;;26.14;51.91;100522.28;6131191;23;63752;-61
2023/06/18 03:02:17;;;;;;;;;12.00;11.67;;;;;26.11;51.77;100525.13;6131274;23;54727;-62
2023/06/18 03:04:43;;;;;;;;;22.00;13.67;;;;;26.10;51.61;100528.81;6131795;23;44964;-61
2023/06/18 03:07:08;;;;;;;;;18.00;15.00;;;;;26.09;52.21;100536.16;6130809;23;44882;-62
2023/06/18 03:09:33;;;;;;;;;16.00;13.00;;;;;26.08;51.76;100541.69;6131120;23;45425;-61
2023/06/18 03:11:59;;;;;;;;;8.33;8.33;;;;;26.04;51.24;100540.94;6131200;23;44786;-62
2023/06/18 03:14:24;;;;;;;;;9.33;8.67;;;;;26.03;50.87;100536.38;6132104;23;45004;-63
2023/06/18 03:16:50;;;;;;;;;8.67;8.67;;;;;26.00;50.23;100538.38;6132320;23;44913;-62
2023/06/18 03:19:15;;;;;;;;;8.00;8.00;;;;;25.89;50.30;100511.41;6132000;23;46628;-60
2023/06/18 03:21:41;;;;;;;;;10.00;8.33;;;;;25.97;49.81;100520.25;6131211;23;44898;-62
2023/06/18 03:24:06;;;;;;;;;9.67;7.67;;;;;25.95;49.61;100535.78;6130852;23;48119;-61
2023/06/18 03:26:36;;;;;;;;;7.67;7.00;;;;;25.87;49.74;100533.38;6130773;23;45080;-61
2023/06/18 03:29:04;;;;;;;;;9.00;7.00;;;;;25.81;49.49;100532.72;6130800;23;45852;-60
2023/06/18 03:31:31;;;;;;;;;6.33;6.00;;;;;25.81;49.15;100536.34;6130391;23;45266;-61
2023/06/18 03:34:01;;;;;;;;;8.33;8.00;;;;;25.79;49.33;100541.00;6131510;23;44969;-62
2023/06/18 03:36:39;;;;;;;;;8.33;7.00;;;;;25.83;49.56;100550.88;6132202;23;45048;-62
2023/06/18 03:39:05;;;;;;;;;10.00;7.00;;;;;25.74;49.64;100543.03;6130789;23;45162;-60
2023/06/18 03:41:31;;;;;;;;;10.00;9.00;;;;;25.74;50.41;100545.78;6131583;23;45151;-62
2023/06/18 03:43:56;;;;;;;;;8.00;6.67;;;;;25.78;50.06;100558.38;6130562;23;44920;-61
2023/06/18 03:46:22;;;;;;;;;12.67;12.00;;;;;25.79;50.01;100557.44;6130317;23;44858;-61
2023/06/18 03:48:47;;;;;;;;;9.33;7.67;;;;;25.81;49.85;100555.50;6131710;23;45535;-62
2023/06/18 03:51:13;;;;;;;;;11.00;11.00;;;;;25.82;49.74;100545.44;6131411;23;45352;-62
2023/06/18 03:53:38;;;;;;;;;8.67;8.67;;;;;25.79;49.98;100546.47;6130887;23;45270;-62
2023/06/18 03:56:04;;;;;;;;;8.33;7.00;;;;;25.75;49.46;100547.53;6131740;23;45044;-61
2023/06/18 03:58:30;;;;;;;;;11.33;9.67;;;;;25.74;49.68;100553.97;6130896;23;45941;-62
2023/06/18 04:00:56;;;;;;;;;7.33;7.33;;;;;25.74;49.33;100556.72;6130152;23;45311;-62
2023/06/18 04:03:22;;;;;;;;;9.00;9.00;;;;;25.73;49.76;100547.59;6132102;23;44942;-62
2023/06/18 04:05:48;;;;;;;;;8.33;6.33;;;;;25.69;49.61;100543.22;6131256;23;45178;-61
2023/06/18 04:08:14;;;;;;;;;5.67;5.67;;;;;25.71;50.06;100545.91;6132176;23;45270;-62
2023/06/18 04:10:40;;;;;;;;;6.00;6.00;;;;;25.65;49.26;100540.66;6131732;23;44854;-61
2023/06/18 04:13:06;;;;;;;;;4.67;4.67;;;;;25.59;49.37;100525.38;6131146;23;44934;-60
2023/06/18 04:15:31;;;;;;;;;6.33;5.67;;;;;25.67;49.40;100538.75;6131785;23;45068;-61
2023/06/18 04:17:57;;;;;;;;;12.33;10.33;;;;;25.66;49.67;100532.38;6130094;23;46852;-61
2023/06/18 04:20:22;;;;;;;;;10.00;9.67;;;;;25.56;49.26;100511.81;6131801;23;44872;-62
2023/06/18 04:22:47;;;;;;;;;4.00;2.67;;;;;25.68;49.38;100532.34;6131333;23;44881;-62
2023/06/18 04:25:13;;;;;;;;;6.00;5.00;;;;;25.55;49.20;100515.50;6132335;23;45187;-61
2023/06/18 04:27:39;;;;;;;;;5.33;5.33;;;;;25.67;49.03;100530.53;6131761;23;45972;-62
2023/06/18 04:30:06;;;;;;;;;7.00;7.00;;;;;25.66;50.04;100532.38;6131255;23;44953;-61
2023/06/18 04:32:31;;;;;;;;;7.00;4.67;;;;;25.65;50.14;100529.72;6130956;23;44862;-62
2023/06/18 04:34:56;;;;;;;;;5.00;5.00;;;;;25.66;50.19;100534.25;6131075;23;45119;-60
2023/06/18 04:37:22;;;;;;;;;7.67;6.33;;;;;25.67;50.11;100541.47;6130440;23;45571;-61
2023/06/18 04:39:47;;;;;;;;;12.00;9.00;;;;;25.67;50.44;100539.66;6131454;23;45107;-61
2023/06/18 04:42:13;;;;;;;;;10.33;9.67;;;;;25.66;51.58;100545.19;6131624;23;45142;-62
2023/06/18 04:44:38;;;;;;;;;17.33;13.33;;;;;25.63;51.58;100548.91;6130667;23;44872;-61
2023/06/18 04:47:04;;;;;;;;;14.33;13.33;;;;;25.62;51.76;100548.97;6131864;23;45360;-61
2023/06/18 04:49:30;;;;;;;;;17.33;16.67;;;;;25.67;52.20;100556.06;6128931;23;44973;-62
2023/06/18 04:51:55;;;;;;;;;18.00;12.67;;;;;25.60;52.33;100545.41;6131695;23;45078;-62
2023/06/18 04:54:21;;;;;;;;;15.00;13.33;;;;;25.67;52.82;100558.81;6131504;23;45174;-61
2023/06/18 04:56:46;;;;;;;;;12.00;11.33;;;;;25.68;52.79;100570.63;6128003;23;45195;-61
2023/06/18 04:59:11;;;;;;;;;14.33;13.00;;;;;25.63;53.07;100558.97;6119963;23;45394;-62
2023/06/18 05:01:37;;;;;;;;;11.67;11.33;;;;;25.66;53.05;100569.81;6118014;23;45600;-63
2023/06/18 05:04:02;;;;;;;;;9.67;8.33;;;;;25.59;53.05;100558.22;6119916;23;45366;-61
2023/06/18 05:06:27;;;;;;;;;13.00;10.00;;;;;25.63;52.77;100565.34;6119491;23;45950;-60
2023/06/18 05:08:53;;;;;;;;;11.00;10.33;;;;;25.61;52.68;100555.44;6119879;23;45434;-61
2023/06/18 05:11:18;;;;;;;;;14.67;12.00;;;;;25.60;52.75;100554.50;6119517;23;45178;-61
2023/06/18 05:13:44;;;;;;;;;13.33;12.33;;;;;25.54;52.86;100549.28;6120237;23;45754;-61
2023/06/18 05:16:09;;;;;;;;;13.00;11.00;;;;;25.61;52.92;100567.25;6115897;23;47355;-62
2023/06/18 05:18:36;;;;;;;;;10.67;10.67;;;;;25.61;52.78;100569.09;6119487;23;45519;-61
2023/06/18 05:21:02;;;;;;;;;7.33;7.00;;;;;25.53;52.77;100556.59;6120040;23;45651;-62
2023/06/18 05:23:27;;;;;;;;;5.33;5.33;;;;;25.57;52.14;100571.03;6119887;23;45494;-61
2023/06/18 05:25:53;;;;;;;;;7.67;6.00;;;;;25.54;52.28;100573.91;6119107;23;45581;-61
2023/06/18 05:28:19;;;;;;;;;7.33;5.33;;;;;25.54;52.12;100571.16;6118288;23;45309;-61
2023/06/18 05:30:46;;;;;;;;;4.33;4.33;;;;;25.53;51.53;100564.81;6118127;23;45390;-61
2023/06/18 05:33:12;;;;;;;;;9.33;6.00;;;;;25.24;51.59;100515.78;6119836;23;45581;-62
2023/06/18 05:35:37;;;;;;;;;5.00;5.00;;;;;25.56;51.09;100570.16;6119563;23;45653;-61
2023/06/18 05:38:03;;;;;;;;;9.00;6.00;;;;;25.55;51.64;100567.47;6119496;23;45588;-62
2023/06/18 05:40:28;;;;;;;;;6.33;6.00;;;;;25.55;51.92;100572.94;6119211;23;45295;-63
2023/06/18 05:42:54;;;;;;;;;9.33;8.00;;;;;25.41;52.14;100550.69;6119314;23;48131;-62
2023/06/18 05:45:19;;;;;;;;;5.33;5.33;;;;;25.53;52.02;100570.28;6130083;23;46523;-62
2023/06/18 05:47:44;;;;;;;;;6.67;6.00;;;;;25.53;52.03;100572.13;6130831;23;45112;-62
2023/06/18 05:50:10;;;;;;;;;10.00;8.00;;;;;25.38;51.99;100563.56;6131115;23;45402;-61
2023/06/18 05:52:35;;;;;;;;;5.33;5.33;;;;;25.47;52.06;100578.72;6130393;23;47464;-62
2023/06/18 05:55:01;;;;;;;;;10.33;5.67;;;;;25.47;52.04;100581.44;6129617;23;45718;-61
2023/06/18 05:57:27;;;;;;;;;7.33;6.00;;;;;25.48;51.87;100574.16;6128004;23;45033;-62
2023/06/18 05:59:52;;;;;;;;;9.33;8.33;;;;;25.51;51.91;100580.41;6130198;23;44862;-61
2023/06/18 06:02:18;;;;;;;;;11.00;9.67;;;;;25.50;51.95;100573.13;6131232;23;44912;-62
2023/06/18 06:04:43;;;;;;;;;6.33;6.33;;;;;25.49;51.93;100579.56;6129897;23;46639;-62
2023/06/18 06:07:09;;;;;;;;;7.00;6.00;;;;;25.51;51.44;100577.66;6129424;23;45029;-62
2023/06/18 06:09:35;;;;;;;;;6.00;6.00;;;;;25.49;51.98;100576.84;6131675;23;44956;-61
2023/06/18 06:12:01;;;;;;;;;4.67;4.67;;;;;25.45;51.58;100569.69;6132428;23;44981;-62
2023/06/18 06:14:26;;;;;;;;;9.67;6.67;;;;;25.45;51.52;100577.00;6132521;23;46125;-62
2023/06/18 06:16:57;;;;;;;;;7.00;5.00;;;;;25.45;51.33;100572.41;6131351;23;44964;-62
2023/06/18 06:19:22;;;;;;;;;7.67;6.00;;;;;25.48;51.71;100585.09;6131006;23;44963;-62
2023/06/18 06:21:48;;;;;;;;;9.33;7.33;;;;;25.40;51.89;100570.81;6130231;23;45339;-62
2023/06/18 06:24:15;;;;;;;;;9.33;7.00;;;;;25.47;51.87;100581.44;6132751;23;46424;-62
2023/06/18 06:26:40;;;;;;;;;6.33;6.33;;;;;25.46;51.80;100574.22;6130858;23;44854;-62
2023/06/18 06:29:06;;;;;;;;;4.67;4.67;;;;;25.46;51.96;100579.69;6129116;23;44992;-61
2023/06/18 06:31:31;;;;;;;;;4.33;4.33;;;;;25.42;51.75;100568.91;6131895;23;44914;-61
2023/06/18 06:33:57;;;;;;;;;8.00;8.00;;;;;25.43;51.44;100571.59;6131146;23;45466;-61
2023/06/18 06:36:22;;;;;;;;;6.00;6.00;;;;;25.49;52.06;100571.38;6131809;23;45099;-62
2023/06/18 06:38:48;;;;;;;;;7.00;5.67;;;;;25.54;51.60;100563.88;6132086;23;45260;-62
2023/06/18 06:41:13;;;;;;;;;13.00;9.00;;;;;25.60;51.84;100564.56;6131264;23;44898;-63
2023/06/18 06:43:39;;;;;;;;;11.67;8.33;;;;;25.35;52.17;100521.75;6131743;23;45394;-57
2023/06/18 06:46:04;;;;;;;;;10.67;10.00;;;;;25.52;52.42;100557.56;6131172;23;45347;-61
2023/06/18 06:48:30;;;;;;;;;6.33;6.33;;;;;25.52;52.50;100543.88;6125252;23;45717;-59
2023/06/18 06:50:55;;;;;;;;;10.33;9.00;;;;;25.53;52.58;100573.00;6120605;23;45264;-60
2023/06/18 06:53:21;;;;;;;;;10.00;8.33;;;;;25.52;52.04;100575.81;6116567;23;47202;-59
2023/06/18 06:55:46;;;;;;;;;11.00;8.00;;;;;25.50;52.56;100575.84;6120377;23;45443;-60
2023/06/18 06:58:11;;;;;;;;;9.67;7.00;;;;;25.51;52.32;100574.91;6118399;23;45347;-60
2023/06/18 07:00:36;;;;;;;;;15.00;12.00;;;;;25.55;52.53;100572.94;6120215;23;45264;-58
2023/06/18 07:03:02;;;;;;;;;10.00;8.33;;;;;25.52;51.73;100575.81;6122954;23;46085;-59
2023/06/18 07:05:28;;;;;;;;;8.67;7.00;;;;;25.51;52.20;100577.66;6119937;23;45495;-58
2023/06/18 07:07:53;;;;;;;;;10.67;7.33;;;;;25.56;51.91;100577.47;6119446;23;45436;-59
2023/06/18 07:10:18;;;;;;;;;9.00;6.33;;;;;25.50;52.14;100564.03;6120702;23;45300;-60
2023/06/18 07:12:44;;;;;;;;;8.00;8.00;;;;;25.58;51.50;100574.69;6120431;23;46096;-56
2023/06/18 07:15:09;;;;;;;;;10.67;9.33;;;;;25.49;51.50;100554.94;6129785;23;45255;-59
2023/06/18 07:17:35;;;;;;;;;13.33;10.33;;;;;25.63;52.02;100576.28;6129237;23;44982;-60
2023/06/18 07:20:00;;;;;;;;;10.00;10.00;;;;;25.63;51.85;100569.94;6124254;23;45209;-58
2023/06/18 07:22:25;;;;;;;;;8.67;8.67;;;;;25.65;51.47;100568.91;6120463;23;45462;-60
2023/06/18 07:24:51;;;;;;;;;10.67;9.33;;;;;25.31;51.76;100525.53;6120591;23;45415;-58
2023/06/18 07:27:16;;;;;;;;;10.00;8.67;;;;;25.62;51.93;100579.06;6120503;23;45436;-59
2023/06/18 07:29:42;;;;;;;;;12.67;11.00;;;;;25.62;51.69;100568.13;6120502;23;45371;-58
2023/06/18 07:32:07;;;;;;;;;13.67;11.33;;;;;25.65;51.08;100560.69;6119124;23;45178;-59
2023/06/18 07:34:32;;;;;;;;;11.33;11.00;;;;;25.77;51.19;100577.59;6120074;23;45303;-59
2023/06/18 07:36:58;;;;;;;;;12.00;9.33;;;;;25.79;51.05;100582.06;6120361;23;45273;-59
2023/06/18 07:39:25;;;;;;;;;9.67;7.67;;;;;25.85;50.75;100584.53;6120471;23;45341;-59
2023/06/18 07:41:50;;;;;;;;;13.00;10.00;;;;;25.90;50.60;100576.13;6118878;23;45451;-59
2023/06/18 07:44:16;;;;;;;;;16.00;15.00;;;;;25.88;50.62;100567.09;6119052;23;45237;-59
2023/06/18 07:46:45;;;;;;;;;10.00;10.00;;;;;25.95;50.57;100565.88;6120217;23;45287;-58
2023/06/18 07:49:10;;;;;;;;;12.67;11.33;;;;;25.97;50.74;100569.50;6120564;23;45253;-60
2023/06/18 07:51:36;;;;;;;;;10.00;10.00;;;;;25.94;50.60;100561.38;6119838;23;45663;-60
2023/06/18 07:54:01;;;;;;;;;13.33;10.00;;;;;25.93;50.76;100571.44;6118991;23;45391;-58
2023/06/18 07:56:26;;;;;;;;;19.00;15.25;;;;;25.88;50.72;100569.84;6119132;23;45597;-60
2023/06/18 07:58:52;;;;;;;;;7.33;7.33;;;;;25.93;50.27;100589.72;6120341;23;45258;-59
2023/06/18 08:01:18;;;;;;;;;13.67;9.33;;;;;25.93;50.59;100586.97;6119319;23;45630;-59
2023/06/18 08:03:44;;;;;;;;;11.00;11.00;;;;;25.92;50.29;100577.88;6119507;23;45385;-59
2023/06/18 08:06:09;;;;;;;;;15.33;12.00;;;;;26.02;50.15;100583.00;6117852;23;45539;-58
2023/06/18 08:08:34;;;;;;;;;12.00;9.33;;;;;26.06;50.33;100570.97;6120056;23;45291;-58
2023/06/18 08:11:00;;;;;;;;;10.67;10.00;;;;;26.11;50.44;100560.72;6118781;23;45366;-59
2023/06/18 08:13:25;;;;;;;;;15.33;13.33;;;;;26.15;49.77;100559.66;6118645;23;45381;-59
2023/06/18 08:15:51;;;;;;;;;16.00;14.67;;;;;26.19;49.70;100557.69;6119957;23;45288;-59
2023/06/18 08:18:16;;;;;;;;;13.67;11.33;;;;;26.28;49.90;100554.53;6118103;23;45475;-58
2023/06/18 08:20:41;;;;;;;;;11.33;10.67;;;;;26.28;49.39;100558.19;6119395;23;46781;-60
2023/06/18 08:23:07;;;;;;;;;11.00;10.00;;;;;26.34;49.18;100559.75;6118414;23;45449;-59
2023/06/18 08:25:32;;;;;;;;;15.67;12.00;;;;;26.34;48.43;100547.94;6118504;23;45341;-58
2023/06/18 08:27:58;;;;;;;;;14.67;14.67;;;;;26.47;48.47;100566.50;6118166;23;45346;-59
2023/06/18 08:30:24;;;;;;;;;14.00;12.33;;;;;26.57;48.16;100560.63;6116744;23;46775;-59
2023/06/18 08:32:50;;;;;;;;;14.33;13.00;;;;;26.58;47.62;100549.63;6116903;23;45664;-59
2023/06/18 08:35:15;;;;;;;;;16.33;14.00;;;;;26.55;46.78;100538.78;6116834;23;45247;-60
2023/06/18 08:37:40;;;;;;;;;21.00;19.33;;;;;26.51;46.58;100531.63;6119095;23;45347;-58
2023/06/18 08:40:07;;;;;;;;;34.75;31.00;;;;;26.63;46.75;100536.63;6119983;23;46115;-59
2023/06/18 08:42:33;;;;;;;;;16.67;15.00;;;;;26.61;47.31;100535.78;6119190;23;45358;-61
2023/06/18 08:44:58;;;;;;;;;13.67;10.67;;;;;26.73;47.26;100538.94;6119095;23;45170;-61
2023/06/18 08:47:27;;;;;;;;;12.00;12.00;;;;;26.75;46.26;100548.03;6127498;23;45467;-61
2023/06/18 08:49:58;;;;;;;;;12.67;11.67;;;;;26.75;45.55;100539.78;6130371;23;45957;-60
2023/06/18 08:52:25;;;;;;;;;10.33;10.33;;;;;26.61;45.21;100513.84;6130525;23;44866;-60
2023/06/18 08:54:55;;;;;;;;;11.33;10.33;;;;;26.72;45.55;100535.31;6131629;23;45126;-61
2023/06/18 08:57:40;;;;;;;;;12.67;12.67;;;;;26.73;46.29;100539.88;6131661;23;45215;-61
2023/06/18 09:00:08;;;;;;;;;11.33;9.67;;;;;26.78;45.49;100528.69;6100280;23;47957;-62
2023/06/18 09:02:34;;;;;;;;;14.67;11.00;;;;;26.83;45.72;100527.53;6118012;23;45273;-64
2023/06/18 09:05:03;;;;;;;;;9.00;9.00;;;;;26.85;45.07;100530.19;6120061;23;45337;-64
2023/06/18 09:07:29;;;;;;;;;12.00;10.67;;;;;26.77;45.53;100504.97;6119825;23;45343;-63
2023/06/18 09:09:55;;;;;;;;;16.00;11.00;;;;;26.82;45.31;100505.66;6119094;23;46433;-65
2023/06/18 09:12:20;;;;;;;;;10.67;10.67;;;;;26.97;45.18;100506.81;6119013;23;45244;-64
2023/06/18 09:14:46;;;;;;;;;10.33;8.67;;;;;27.09;44.84;100513.56;6120226;23;45155;-64
2023/06/18 09:17:12;;;;;;;;;14.33;11.00;;;;;27.15;45.33;100518.78;6119059;23;45236;-64
2023/06/18 09:19:37;;;;;;;;;19.67;12.33;;;;;27.25;44.88;100516.50;6119238;23;45427;-62
2023/06/18 09:22:14;;;;;;;;;12.00;12.00;;;;;27.32;44.58;100509.78;6118894;23;45385;-64
2023/06/18 09:24:40;;;;;;;;;10.00;9.00;;;;;27.42;44.68;100516.63;6119443;23;45388;-64
2023/06/18 09:27:06;;;;;;;;;11.00;10.67;;;;;27.48;44.36;100510.84;6119136;23;45344;-63
2023/06/18 09:29:39;;;;;;;;;8.00;8.00;;;;;27.53;44.27;100505.16;6119226;23;45363;-61
2023/06/18 09:32:13;;;;;;;;;11.00;9.00;;;;;27.57;43.96;100507.66;6116455;23;45589;-64
2023/06/18 09:34:40;;;;;;;;;11.00;11.00;;;;;27.59;43.83;100499.38;6118752;23;45269;-62
2023/06/18 09:37:08;;;;;;;;;9.67;9.67;;;;;27.53;43.81;100496.91;6119925;23;45304;-63
2023/06/18 09:39:35;;;;;;;;;14.00;12.00;;;;;27.43;43.84;100493.72;6117025;23;46465;-63
2023/06/18 09:42:13;;;;;;;;;10.67;9.33;;;;;27.53;43.90;100497.78;6119770;23;45298;-62
2023/06/18 09:44:39;;;;;;;;;13.67;11.00;;;;;27.56;43.65;100499.50;6120135;23;45390;-63
2023/06/18 09:47:12;;;;;;;;;9.67;8.00;;;;;27.66;43.50;100492.59;6119573;23;45295;-61
2023/06/18 09:49:40;;;;;;;;;13.33;11.33;;;;;27.66;43.79;100495.34;6119663;23;46298;-62
2023/06/18 09:52:07;;;;;;;;;11.67;10.67;;;;;27.46;43.92;100460.66;6119864;23;45340;-61
2023/06/18 09:54:41;;;;;;;;;15.67;12.33;;;;;27.82;44.49;100498.25;6120191;23;45360;-62
2023/06/18 09:57:10;;;;;;;;;12.67;11.00;;;;;27.94;43.53;100492.16;6120244;23;45446;-62
2023/06/18 09:59:36;;;;;;;;;15.00;13.00;;;;;28.04;43.68;100495.31;6119737;23;46143;-64
2023/06/18 10:02:01;;;;;;;;;15.00;12.67;;;;;27.92;43.66;100469.34;6119469;23;45239;-64
2023/06/18 10:04:27;;;;;;;;;13.67;9.67;;;;;28.15;43.85;100492.06;6120129;23;45491;-64
2023/06/18 10:06:58;;;;;;;;;10.33;10.33;;;;;28.25;43.16;100492.47;6121054;23;45261;-65
2023/06/18 10:09:36;;;;;;;;;15.67;13.33;;;;;28.17;43.32;100494.72;6119705;23;46348;-62
2023/06/18 10:12:03;;;;;;;;;19.00;14.33;;;;;28.15;43.95;100483.81;6118635;23;45256;-64
2023/06/18 10:14:30;;;;;;;;;17.00;16.00;;;;;28.27;43.16;100496.03;6119613;23;45257;-64
2023/06/18 10:17:31;;;;;;;;;13.67;12.33;;;;;28.26;43.07;100496.97;6118908;23;45421;-64
2023/06/18 10:20:06;;;;;;;;;18.33;15.67;;;;;28.36;43.03;100497.38;6119753;23;46496;-64
2023/06/18 10:22:39;;;;;;;;;15.33;12.33;;;;;28.38;42.51;100498.19;6117971;23;45245;-64
2023/06/18 10:25:05;;;;;;;;;16.33;15.00;;;;;28.23;42.52;100489.81;6119560;23;45395;-65
2023/06/18 10:27:32;;;;;;;;;18.33;15.67;;;;;28.28;43.00;100484.94;6120218;23;45321;-64
2023/06/18 10:29:58;;;;;;;;;18.33;14.67;;;;;28.21;42.19;100475.22;6119918;23;45244;-65
2023/06/18 10:32:25;;;;;;;;;15.67;15.67;;;;;28.20;42.95;100476.22;6119052;23;45302;-64
2023/06/18 10:34:57;;;;;;;;;16.67;13.00;;;;;28.41;42.74;100476.06;6119535;23;45467;-64
2023/06/18 10:37:26;;;;;;;;;14.33;13.33;;;;;28.54;42.30;100465.31;6118469;23;45684;-66
2023/06/18 10:39:53;;;;;;;;;15.67;14.67;;;;;28.60;41.22;100473.28;6119346;23;45971;-64
2023/06/18 10:42:20;;;;;;;;;12.00;12.00;;;;;28.52;40.97;100468.13;6118894;23;45245;-64
2023/06/18 10:44:45;;;;;;;;;44.25;33.25;;;;;28.67;41.44;100475.59;6121018;23;45408;-67
2023/06/18 10:47:26;;;;;;;;;17.33;15.33;;;;;28.74;40.78;100467.03;6120344;23;45475;-65
2023/06/18 10:50:04;;;;;;;;;16.33;15.33;;;;;28.82;41.25;100462.00;6117329;23;47459;-66
2023/06/18 10:52:34;;;;;;;;;16.00;15.00;;;;;28.75;41.09;100463.31;6119123;23;45367;-65
2023/06/18 10:55:18;;;;;;;;;13.33;13.33;;;;;28.84;41.10;100451.78;6119664;23;45296;-65
2023/06/18 10:57:45;;;;;;;;;20.67;19.67;;;;;28.89;41.05;100451.53;6119961;23;45322;-65
2023/06/18 11:00:38;;;;;;;;;15.00;14.67;;;;;28.92;40.61;100452.25;6119210;23;45293;-66
2023/06/18 11:03:15;;;;;;;;;14.33;12.33;;;;;28.95;40.80;100445.72;6104332;23;45288;-66
2023/06/18 11:05:47;;;;;;;;;21.33;16.00;;;;;28.95;40.73;100449.34;6119175;23;45402;-65
2023/06/18 11:08:15;;;;;;;;;17.33;14.67;;;;;28.91;41.39;100453.25;6120293;23;45529;-65
2023/06/18 11:10:49;;;;;;;;;14.33;12.67;;;;;28.88;40.47;100441.53;6117587;23;45993;-66
2023/06/18 11:13:16;;;;;;;;;15.00;15.00;;;;;28.84;40.46;100427.03;6120558;23;45435;-64
2023/06/18 11:16:06;;;;;;;;;17.00;14.00;;;;;28.84;40.20;100429.78;6119680;23;45357;-66